createdAt,value
2019-06-26T00:00:19.110Z,27.20
2019-06-26T00:02:48.743Z,27.10
2019-06-26T00:05:18.431Z,27.10
2019-06-26T00:07:48.086Z,27.10
2019-06-26T00:10:18.456Z,27.10
2019-06-26T00:12:48.014Z,27.00
2019-06-26T00:15:17.709Z,27.00
2019-06-26T00:17:47.316Z,27.00
2019-06-26T00:20:17.649Z,27.00
2019-06-26T00:22:47.234Z,26.90
2019-06-26T00:25:16.903Z,26.90
2019-06-26T00:27:46.517Z,26.90
2019-06-26T00:30:16.149Z,26.90
2019-06-26T00:32:45.687Z,26.80
2019-06-26T00:35:15.293Z,26.80
2019-06-26T00:37:44.919Z,26.80
2019-06-26T00:40:14.731Z,26.70
2019-06-26T00:42:44.360Z,26.70
2019-06-26T00:45:14.135Z,26.60
2019-06-26T00:47:43.768Z,26.60
2019-06-26T00:50:13.634Z,26.60
2019-06-26T00:52:43.192Z,26.50
2019-06-26T00:55:13.284Z,26.50
2019-06-26T00:57:42.898Z,26.50
2019-06-26T01:00:13.279Z,26.50
2019-06-26T01:02:42.858Z,26.40
2019-06-26T01:05:13.622Z,26.40
2019-06-26T01:07:43.223Z,26.40
2019-06-26T01:10:14.567Z,26.40
2019-06-26T01:12:44.167Z,26.40
2019-06-26T01:15:13.921Z,26.40
2019-06-26T01:17:43.497Z,26.30
2019-06-26T01:20:13.670Z,26.30
2019-06-26T01:22:43.281Z,26.30
2019-06-26T01:25:12.979Z,26.30
2019-06-26T01:28:01.658Z,26.30
2019-06-26T01:30:31.368Z,26.30
2019-06-26T01:33:00.960Z,26.20
2019-06-26T01:35:30.571Z,26.20
2019-06-26T01:38:00.232Z,26.20
2019-06-26T01:40:29.773Z,26.20
2019-06-26T01:42:59.361Z,26.20
2019-06-26T01:45:29.023Z,26.20
2019-06-26T01:47:58.668Z,26.20
2019-06-26T01:50:28.247Z,26.20
2019-06-26T01:52:57.831Z,26.20
2019-06-26T01:55:27.428Z,26.20
2019-06-26T01:57:57.038Z,26.10
2019-06-26T02:00:26.855Z,26.10
2019-06-26T02:02:56.600Z,26.10
2019-06-26T02:05:26.188Z,26.10
2019-06-26T02:07:55.787Z,26.10
2019-06-26T02:10:25.383Z,26.10
2019-06-26T02:12:55.015Z,26.10
2019-06-26T02:15:24.573Z,26.00
2019-06-26T02:18:30.687Z,26.00
2019-06-26T02:21:00.277Z,26.00
2019-06-26T02:23:29.845Z,25.90
2019-06-26T02:25:59.452Z,25.90
2019-06-26T02:28:29.048Z,25.80
2019-06-26T02:30:58.670Z,25.80
2019-06-26T02:33:28.267Z,25.80
2019-06-26T02:35:57.884Z,25.90
2019-06-26T02:38:27.442Z,25.90
2019-06-26T02:40:57.067Z,25.90
2019-06-26T02:43:26.643Z,25.90
2019-06-26T02:45:56.236Z,25.90
2019-06-26T02:48:25.864Z,25.90
2019-06-26T02:50:55.540Z,25.90
2019-06-26T02:53:25.124Z,25.80
2019-06-26T02:55:54.711Z,25.80
2019-06-26T02:58:24.395Z,25.80
2019-06-26T03:00:53.949Z,25.80
2019-06-26T03:03:23.519Z,25.80
2019-06-26T03:05:53.177Z,25.80
2019-06-26T03:08:22.805Z,25.80
2019-06-26T03:10:52.389Z,25.70
2019-06-26T03:13:22.011Z,25.70
2019-06-26T03:15:51.630Z,25.70
2019-06-26T03:18:21.276Z,25.70
2019-06-26T03:20:54.065Z,25.70
2019-06-26T03:23:23.691Z,25.70
2019-06-26T03:25:53.400Z,25.70
2019-06-26T03:28:23.024Z,25.80
2019-06-26T03:30:52.606Z,25.80
2019-06-26T03:33:22.206Z,25.80
2019-06-26T03:35:51.802Z,25.80
2019-06-26T03:38:21.386Z,25.80
2019-06-26T03:40:50.992Z,25.90
2019-06-26T03:43:20.561Z,25.90
2019-06-26T03:45:50.182Z,25.90
2019-06-26T03:48:19.814Z,25.90
2019-06-26T03:50:49.384Z,26.00
2019-06-26T03:53:18.976Z,26.00
2019-06-26T03:55:48.627Z,26.00
2019-06-26T03:58:18.202Z,26.10
2019-06-26T04:00:47.810Z,26.10
2019-06-26T04:03:17.445Z,26.10
2019-06-26T04:05:47.031Z,26.10
2019-06-26T04:08:16.597Z,26.20
2019-06-26T04:10:46.223Z,26.20
2019-06-26T04:13:15.790Z,26.20
2019-06-26T04:15:45.435Z,26.30
2019-06-26T04:18:14.999Z,26.40
2019-06-26T04:20:44.596Z,26.40
2019-06-26T04:23:14.232Z,26.50
2019-06-26T04:25:43.903Z,26.50
2019-06-26T04:28:13.491Z,26.60
2019-06-26T04:30:43.071Z,26.60
2019-06-26T04:33:12.696Z,26.70
2019-06-26T04:35:42.307Z,26.80
2019-06-26T04:38:11.907Z,26.90
2019-06-26T04:40:41.571Z,27.00
2019-06-26T04:43:11.179Z,27.10
2019-06-26T04:45:56.952Z,27.20
2019-06-26T04:48:12.063Z,27.20
2019-06-26T04:50:41.841Z,27.30
2019-06-26T04:53:11.396Z,27.40
2019-06-26T04:55:41.036Z,27.50
2019-06-26T04:58:10.664Z,27.60
2019-06-26T05:00:40.259Z,27.70
2019-06-26T05:03:09.879Z,27.70
2019-06-26T05:05:40.296Z,27.80
2019-06-26T05:08:09.977Z,27.80
2019-06-26T05:10:39.595Z,27.90
2019-06-26T05:13:09.235Z,28.00
2019-06-26T05:15:38.792Z,28.00
2019-06-26T05:18:08.387Z,28.10
2019-06-26T05:20:38.016Z,28.10
2019-06-26T05:23:09.303Z,28.20
2019-06-26T05:25:38.879Z,28.20
2019-06-26T05:28:08.779Z,28.30
2019-06-26T05:30:38.465Z,28.40
2019-06-26T05:33:08.050Z,28.40
2019-06-26T05:35:37.708Z,28.40
2019-06-26T05:38:07.270Z,28.50
2019-06-26T05:40:36.871Z,28.60
2019-06-26T05:43:06.479Z,28.60
2019-06-26T05:45:36.086Z,28.70
2019-06-26T05:48:05.753Z,28.70
2019-06-26T05:50:35.354Z,28.70
2019-06-26T05:53:04.964Z,28.80
2019-06-26T05:55:34.555Z,28.90
2019-06-26T05:58:04.198Z,29.00
2019-06-26T06:00:33.847Z,29.00
2019-06-26T06:03:03.564Z,29.10
2019-06-26T06:05:33.202Z,29.10
2019-06-26T06:08:02.793Z,29.10
2019-06-26T06:10:32.578Z,29.20
2019-06-26T06:13:02.140Z,29.20
2019-06-26T06:15:31.753Z,29.20
2019-06-26T06:18:01.397Z,29.30
2019-06-26T06:20:37.298Z,29.40
2019-06-26T06:23:07.124Z,29.40
2019-06-26T06:25:36.789Z,29.50
2019-06-26T06:28:07.403Z,29.50
2019-06-26T06:30:37.026Z,29.60
2019-06-26T06:33:06.650Z,29.60
2019-06-26T06:35:36.288Z,29.70
2019-06-26T06:38:05.892Z,29.80
2019-06-26T06:40:35.532Z,29.80
2019-06-26T06:43:05.175Z,30.00
2019-06-26T06:45:34.878Z,30.00
2019-06-26T06:48:04.588Z,30.10
2019-06-26T06:50:34.225Z,30.10
2019-06-26T06:53:03.870Z,30.20
2019-06-26T06:55:33.437Z,30.30
2019-06-26T06:58:03.118Z,30.40
2019-06-26T07:00:32.771Z,30.50
2019-06-26T07:03:02.337Z,30.50
2019-06-26T07:05:31.931Z,30.50
2019-06-26T07:08:01.547Z,30.50
2019-06-26T07:10:31.314Z,30.50
2019-06-26T07:13:00.942Z,30.50
2019-06-26T07:15:30.683Z,30.50
2019-06-26T07:18:00.261Z,30.60
2019-06-26T07:20:29.892Z,30.60
2019-06-26T07:22:59.537Z,30.70
2019-06-26T07:25:29.234Z,30.80
2019-06-26T07:28:01.714Z,30.80
2019-06-26T07:30:30.214Z,30.90
2019-06-26T07:33:00.058Z,31.00
2019-06-26T07:35:29.717Z,31.10
2019-06-26T07:38:00.353Z,31.20
2019-06-26T07:40:30.091Z,31.30
2019-06-26T07:42:59.675Z,31.40
2019-06-26T07:45:29.405Z,31.40
2019-06-26T07:47:59.002Z,31.50
2019-06-26T07:50:32.239Z,31.50
2019-06-26T07:52:59.899Z,31.60
2019-06-26T07:55:29.540Z,31.70
2019-06-26T07:57:59.220Z,31.70
2019-06-26T08:00:31.514Z,31.80
2019-06-26T08:03:03.224Z,32.00
2019-06-26T08:05:31.535Z,32.00
2019-06-26T08:08:01.109Z,32.00
2019-06-26T08:10:30.735Z,32.10
2019-06-26T08:13:00.359Z,32.10
2019-06-26T08:15:29.929Z,32.20
2019-06-26T08:18:01.399Z,32.20
2019-06-26T08:20:30.778Z,32.30
2019-06-26T08:23:00.430Z,32.30
2019-06-26T08:25:30.090Z,32.40
2019-06-26T08:27:59.669Z,32.40
2019-06-26T08:30:29.256Z,32.40
2019-06-26T08:32:58.941Z,32.50
2019-06-26T08:35:28.547Z,32.50
2019-06-26T08:38:09.441Z,32.60
2019-06-26T08:40:29.436Z,32.60
2019-06-26T08:42:59.020Z,32.70
2019-06-26T08:45:28.588Z,32.80
2019-06-26T08:47:58.187Z,32.90
2019-06-26T08:50:27.775Z,32.90
2019-06-26T08:52:57.569Z,32.90
2019-06-26T08:55:27.206Z,32.90
2019-06-26T08:57:56.801Z,32.90
2019-06-26T09:00:26.544Z,32.90
2019-06-26T09:02:56.133Z,32.90
2019-06-26T09:05:25.767Z,32.90
2019-06-26T09:07:55.418Z,32.90
2019-06-26T09:10:24.961Z,33.00
2019-06-26T09:12:54.582Z,33.00
2019-06-26T09:15:24.247Z,33.00
2019-06-26T09:17:53.791Z,33.10
2019-06-26T09:20:30.608Z,33.10
2019-06-26T09:23:00.324Z,33.10
2019-06-26T09:25:29.955Z,33.20
2019-06-26T09:27:59.569Z,33.20
2019-06-26T09:30:29.777Z,33.30
2019-06-26T09:32:59.347Z,33.20
2019-06-26T09:35:29.032Z,33.30
2019-06-26T09:37:58.627Z,33.30
2019-06-26T09:40:31.667Z,33.40
2019-06-26T09:42:59.586Z,33.40
2019-06-26T09:45:29.171Z,33.50
2019-06-26T09:47:58.826Z,33.60
2019-06-26T09:50:28.479Z,33.60
2019-06-26T09:52:58.142Z,33.60
2019-06-26T09:55:27.734Z,33.70
2019-06-26T09:57:57.340Z,33.80
2019-06-26T10:00:28.511Z,33.90
2019-06-26T10:02:58.171Z,34.00
2019-06-26T10:05:27.784Z,34.00
2019-06-26T10:07:57.448Z,34.00
2019-06-26T10:10:27.004Z,34.10
2019-06-26T10:12:56.733Z,34.00
2019-06-26T10:15:26.302Z,34.10
2019-06-26T10:17:55.930Z,34.10
2019-06-26T10:20:25.503Z,34.20
2019-06-26T10:22:55.108Z,34.10
2019-06-26T10:25:24.750Z,34.20
2019-06-26T10:27:54.337Z,34.20
2019-06-26T10:30:24.053Z,34.20
2019-06-26T10:32:53.707Z,34.20
2019-06-26T10:35:23.562Z,34.20
2019-06-26T10:37:53.193Z,34.30
2019-06-26T10:40:22.810Z,34.30
2019-06-26T10:42:52.451Z,34.30
2019-06-26T10:45:22.138Z,34.30
2019-06-26T10:47:51.902Z,34.30
2019-06-26T10:50:21.583Z,34.40
2019-06-26T10:52:51.192Z,34.40
2019-06-26T10:55:22.301Z,34.50
2019-06-26T10:57:55.061Z,34.60
2019-06-26T11:00:24.766Z,34.60
2019-06-26T11:02:54.362Z,34.60
2019-06-26T11:05:24.252Z,34.70
2019-06-26T11:07:53.832Z,34.70
2019-06-26T11:10:23.434Z,34.70
2019-06-26T11:12:53.458Z,34.70
2019-06-26T11:15:24.103Z,34.70
2019-06-26T11:17:53.873Z,34.80
2019-06-26T11:20:24.050Z,34.90
2019-06-26T11:22:53.697Z,35.00
2019-06-26T11:25:23.318Z,35.00
2019-06-26T11:27:52.995Z,35.10
2019-06-26T11:30:23.014Z,35.20
2019-06-26T11:32:52.611Z,35.20
2019-06-26T11:35:22.251Z,35.20
2019-06-26T11:37:51.879Z,35.30
2019-06-26T11:40:21.662Z,35.30
2019-06-26T11:42:51.334Z,35.40
2019-06-26T11:45:21.482Z,35.40
2019-06-26T11:47:51.068Z,35.40
2019-06-26T11:50:21.310Z,35.50
2019-06-26T11:52:50.900Z,35.60
2019-06-26T11:55:20.956Z,35.70
2019-06-26T11:57:50.653Z,35.80
2019-06-26T12:00:23.033Z,35.90
2019-06-26T12:02:52.671Z,36.00
2019-06-26T12:05:22.611Z,36.10
2019-06-26T12:07:52.291Z,36.20
2019-06-26T12:10:26.182Z,36.30
2019-06-26T12:12:55.889Z,36.40
2019-06-26T12:15:25.934Z,36.60
2019-06-26T12:17:55.583Z,36.80
2019-06-26T12:20:25.381Z,36.90
2019-06-26T12:22:55.010Z,37.00
2019-06-26T12:25:24.673Z,37.10
2019-06-26T12:27:54.266Z,37.30
2019-06-26T12:30:24.066Z,37.40
2019-06-26T12:33:02.983Z,37.40
2019-06-26T12:35:25.056Z,37.60
2019-06-26T12:37:54.697Z,37.70
2019-06-26T12:40:24.328Z,37.80
2019-06-26T12:42:55.634Z,37.90
2019-06-26T12:45:25.170Z,37.90
2019-06-26T12:47:54.849Z,38.00
2019-06-26T12:50:34.760Z,38.20
2019-06-26T12:52:56.003Z,38.20
2019-06-26T12:55:25.686Z,38.10
2019-06-26T12:58:08.418Z,37.90
2019-06-26T13:00:26.583Z,37.90
2019-06-26T13:02:56.359Z,37.80
2019-06-26T13:05:26.059Z,37.80
2019-06-26T13:07:55.629Z,37.80
2019-06-26T13:10:25.577Z,37.90
2019-06-26T13:12:55.155Z,37.80
2019-06-26T13:15:24.829Z,37.80
2019-06-26T13:17:54.615Z,37.70
2019-06-26T13:20:24.243Z,37.80
2019-06-26T13:22:53.861Z,37.80
2019-06-26T13:25:23.486Z,37.90
2019-06-26T13:27:53.266Z,37.90
2019-06-26T13:30:29.671Z,38.00
2019-06-26T13:32:59.350Z,38.00
2019-06-26T13:35:28.954Z,38.00
2019-06-26T13:37:58.616Z,38.10
2019-06-26T13:40:28.310Z,38.10
2019-06-26T13:42:57.928Z,38.20
2019-06-26T13:45:27.544Z,38.40
2019-06-26T13:47:57.209Z,38.50
2019-06-26T13:50:26.837Z,38.80
2019-06-26T13:52:56.487Z,39.20
2019-06-26T13:55:26.184Z,39.40
2019-06-26T13:57:55.833Z,39.50
2019-06-26T14:00:25.422Z,39.70
2019-06-26T14:02:55.033Z,40.00
2019-06-26T14:05:24.698Z,40.10
2019-06-26T14:07:54.446Z,40.30
2019-06-26T14:10:24.090Z,40.30
2019-06-26T14:12:53.748Z,40.30
2019-06-26T14:15:23.480Z,40.10
2019-06-26T14:17:53.075Z,40.00
2019-06-26T14:20:22.742Z,39.80
2019-06-26T14:22:52.437Z,39.70
2019-06-26T14:25:22.134Z,39.60
2019-06-26T14:27:51.801Z,39.70
2019-06-26T14:30:21.897Z,39.90
2019-06-26T14:32:51.511Z,40.30
2019-06-26T14:35:21.233Z,40.80
2019-06-26T14:37:51.193Z,41.00
2019-06-26T14:40:21.217Z,41.10
2019-06-26T14:42:50.856Z,41.10
2019-06-26T14:45:20.721Z,41.20
2019-06-26T14:47:50.317Z,41.10
2019-06-26T14:50:20.163Z,41.10
2019-06-26T14:52:49.825Z,41.40
2019-06-26T14:55:19.433Z,41.90
2019-06-26T14:58:01.101Z,42.40
2019-06-26T15:00:30.731Z,43.00
2019-06-26T15:03:00.343Z,43.20
2019-06-26T15:05:31.059Z,43.20
2019-06-26T15:08:00.652Z,43.30
2019-06-26T15:10:30.281Z,43.60
2019-06-26T15:12:59.893Z,43.60
2019-06-26T15:15:29.537Z,43.60
2019-06-26T15:17:59.211Z,43.60
2019-06-26T15:20:28.803Z,43.60
2019-06-26T15:22:58.931Z,43.60
2019-06-26T15:25:28.874Z,43.90
2019-06-26T15:27:58.567Z,44.30
2019-06-26T15:30:28.370Z,44.70
2019-06-26T15:32:58.059Z,44.90
2019-06-26T15:35:27.660Z,44.90
2019-06-26T15:37:57.346Z,44.90
2019-06-26T15:40:26.958Z,44.80
2019-06-26T15:42:56.639Z,44.90
2019-06-26T15:45:26.237Z,44.90
2019-06-26T15:47:55.929Z,45.00
2019-06-26T15:50:25.542Z,45.10
2019-06-26T15:52:55.113Z,45.30
2019-06-26T15:55:24.774Z,45.60
2019-06-26T15:57:54.395Z,45.90
2019-06-26T16:00:24.028Z,46.00
2019-06-26T16:02:53.695Z,46.00
2019-06-26T16:05:23.764Z,45.90
2019-06-26T16:07:53.354Z,45.80
2019-06-26T16:10:22.993Z,45.30
2019-06-26T16:12:52.601Z,45.10
2019-06-26T16:15:22.195Z,45.10
2019-06-26T16:18:00.327Z,45.10
2019-06-26T16:20:30.023Z,45.00
2019-06-26T16:22:59.667Z,44.90
2019-06-26T16:25:29.355Z,44.70
2019-06-26T16:28:05.104Z,44.60
2019-06-26T16:30:30.273Z,44.10
2019-06-26T16:32:59.971Z,43.40
2019-06-26T16:35:29.631Z,43.00
2019-06-26T16:37:59.258Z,42.90
2019-06-26T16:40:28.880Z,42.90
2019-06-26T16:42:58.603Z,42.90
2019-06-26T16:45:28.231Z,42.90
2019-06-26T16:47:57.961Z,43.00
2019-06-26T16:50:27.596Z,42.90
2019-06-26T16:52:57.306Z,42.80
2019-06-26T16:55:27.007Z,42.60
2019-06-26T16:57:57.663Z,42.00
2019-06-26T17:00:27.384Z,41.80
2019-06-26T17:02:57.125Z,41.80
2019-06-26T17:05:26.786Z,41.80
2019-06-26T17:07:56.480Z,41.90
2019-06-26T17:10:26.137Z,41.80
2019-06-26T17:12:55.859Z,41.80
2019-06-26T17:15:25.447Z,41.60
2019-06-26T17:17:55.081Z,41.20
2019-06-26T17:20:24.972Z,40.60
2019-06-26T17:23:05.272Z,39.90
2019-06-26T17:25:25.804Z,39.30
2019-06-26T17:27:55.664Z,38.80
2019-06-26T17:30:25.474Z,38.30
2019-06-26T17:32:55.255Z,38.00
2019-06-26T17:35:24.942Z,37.80
2019-06-26T17:37:54.606Z,37.80
2019-06-26T17:40:24.250Z,37.70
2019-06-26T17:42:53.919Z,37.70
2019-06-26T17:45:23.793Z,37.50
2019-06-26T17:47:53.424Z,37.40
2019-06-26T17:50:23.384Z,37.30
2019-06-26T17:52:53.171Z,37.20
2019-06-26T17:55:23.091Z,37.10
2019-06-26T17:57:52.782Z,37.00
2019-06-26T18:00:26.321Z,36.90
2019-06-26T18:02:56.044Z,36.80
2019-06-26T18:05:25.841Z,36.70
2019-06-26T18:07:55.504Z,36.60
2019-06-26T18:10:25.161Z,36.50
2019-06-26T18:12:54.854Z,36.50
2019-06-26T18:15:24.548Z,36.50
2019-06-26T18:17:54.333Z,36.50
2019-06-26T18:20:24.006Z,36.60
2019-06-26T18:23:06.538Z,36.80
2019-06-26T18:25:24.896Z,36.90
2019-06-26T18:27:54.540Z,37.00
2019-06-26T18:30:24.224Z,37.00
2019-06-26T18:32:53.866Z,36.80
2019-06-26T18:35:23.532Z,36.60
2019-06-26T18:37:53.361Z,36.40
2019-06-26T18:40:23.078Z,36.20
2019-06-26T18:42:52.727Z,36.10
2019-06-26T18:45:22.483Z,35.90
2019-06-26T18:47:52.314Z,35.80
2019-06-26T18:50:22.101Z,35.70
2019-06-26T18:52:51.811Z,35.70
2019-06-26T18:55:21.533Z,35.60
2019-06-26T18:57:51.301Z,35.50
2019-06-26T19:00:21.296Z,35.50
2019-06-26T19:02:51.124Z,35.40
2019-06-26T19:05:20.899Z,35.30
2019-06-26T19:07:50.704Z,35.20
2019-06-26T19:10:20.731Z,35.10
2019-06-26T19:12:50.403Z,34.90
2019-06-26T19:15:20.273Z,34.90
2019-06-26T19:17:52.404Z,34.70
2019-06-26T19:20:22.293Z,34.60
2019-06-26T19:22:51.983Z,34.50
2019-06-26T19:25:22.125Z,34.30
2019-06-26T19:27:51.723Z,33.90
2019-06-26T19:30:21.913Z,33.60
2019-06-26T19:32:51.570Z,33.30
2019-06-26T19:35:21.173Z,33.10
2019-06-26T19:37:50.880Z,32.90
2019-06-26T19:40:23.929Z,32.80
2019-06-26T19:42:52.318Z,32.60
2019-06-26T19:45:23.100Z,32.30
2019-06-26T19:47:52.700Z,32.10
2019-06-26T19:50:23.655Z,32.00
2019-06-26T19:52:53.608Z,31.90
2019-06-26T19:55:23.305Z,31.70
2019-06-26T19:57:52.987Z,31.60
2019-06-26T20:00:22.743Z,31.50
2019-06-26T20:02:52.418Z,31.40
2019-06-26T20:05:22.083Z,31.20
2019-06-26T20:07:51.692Z,31.00
2019-06-26T20:10:21.703Z,30.80
2019-06-26T20:12:51.342Z,30.70
2019-06-26T20:15:21.060Z,30.50
2019-06-26T20:17:50.700Z,30.40
2019-06-26T20:20:20.406Z,30.40
2019-06-26T20:22:50.058Z,30.30
2019-06-26T20:25:20.263Z,30.20
2019-06-26T20:27:49.862Z,30.10
2019-06-26T20:30:22.901Z,30.00
2019-06-26T20:32:52.611Z,30.00
2019-06-26T20:35:22.229Z,29.90
2019-06-26T20:37:51.856Z,29.80
2019-06-26T20:40:21.817Z,29.80
2019-06-26T20:42:51.412Z,29.70
2019-06-26T20:45:21.115Z,29.60
2019-06-26T20:47:50.815Z,29.60
2019-06-26T20:50:20.712Z,29.50
2019-06-26T20:52:50.357Z,29.50
2019-06-26T20:55:20.110Z,29.40
2019-06-26T20:57:49.782Z,29.30
2019-06-26T21:00:22.501Z,29.20
2019-06-26T21:02:54.027Z,29.10
2019-06-26T21:05:22.110Z,29.00
2019-06-26T21:07:51.811Z,28.80
2019-06-26T21:10:21.389Z,28.80
2019-06-26T21:12:51.031Z,28.80
2019-06-26T21:15:20.612Z,28.70
2019-06-26T21:17:51.310Z,28.60
2019-06-26T21:20:20.923Z,28.50
2019-06-26T21:22:50.582Z,28.40
2019-06-26T21:25:20.228Z,28.40
2019-06-26T21:27:49.869Z,28.30
2019-06-26T21:30:20.344Z,28.30
2019-06-26T21:32:49.934Z,28.20
2019-06-26T21:35:19.537Z,28.10
2019-06-26T21:37:49.211Z,28.00
2019-06-26T21:40:18.880Z,28.00
2019-06-26T21:42:50.026Z,27.90
2019-06-26T21:45:21.837Z,27.80
2019-06-26T21:47:51.476Z,27.70
2019-06-26T21:50:21.069Z,27.60
2019-06-26T21:52:51.017Z,27.50
2019-06-26T21:55:33.707Z,27.50
2019-06-26T21:57:51.853Z,27.40
2019-06-26T22:00:23.200Z,27.40
2019-06-26T22:02:52.818Z,27.30
2019-06-26T22:05:22.463Z,27.20
2019-06-26T22:07:52.132Z,27.20
2019-06-26T22:10:21.858Z,27.10
2019-06-26T22:12:51.457Z,27.00
2019-06-26T22:15:21.415Z,26.90
2019-06-26T22:17:50.984Z,26.90
2019-06-26T22:20:20.666Z,26.80
2019-06-26T22:22:50.303Z,26.70
2019-06-26T22:25:19.963Z,26.60
2019-06-26T22:27:49.719Z,26.50
2019-06-26T22:30:19.501Z,26.50
2019-06-26T22:32:49.090Z,26.40
2019-06-26T22:35:18.703Z,26.30
2019-06-26T22:37:48.260Z,26.30
2019-06-26T22:40:17.935Z,26.20
2019-06-26T22:42:47.580Z,26.20
2019-06-26T22:45:17.365Z,26.10
2019-06-26T22:47:47.016Z,26.00
2019-06-26T22:50:17.010Z,26.00
2019-06-26T22:52:46.640Z,26.00
2019-06-26T22:55:16.458Z,26.00
2019-06-26T22:57:46.082Z,25.90
2019-06-26T23:00:16.413Z,25.80
2019-06-26T23:02:46.064Z,25.80
2019-06-26T23:05:15.691Z,25.70
2019-06-26T23:07:45.292Z,25.70
2019-06-26T23:10:15.099Z,25.60
2019-06-26T23:12:44.807Z,25.60
2019-06-26T23:15:14.733Z,25.50
2019-06-26T23:17:44.333Z,25.50
2019-06-26T23:20:14.095Z,25.40
2019-06-26T23:22:43.675Z,25.40
2019-06-26T23:25:13.562Z,25.30
2019-06-26T23:27:43.191Z,25.30
2019-06-26T23:30:18.781Z,25.20
2019-06-26T23:32:48.392Z,25.20
2019-06-26T23:35:18.069Z,25.10
2019-06-26T23:37:47.677Z,25.10
2019-06-26T23:40:17.315Z,25.10
2019-06-26T23:42:46.967Z,25.10
2019-06-26T23:45:16.575Z,25.00
2019-06-26T23:47:46.145Z,24.90
2019-06-26T23:50:15.917Z,24.90
2019-06-26T23:52:45.560Z,24.80
2019-06-26T23:55:15.112Z,24.80
2019-06-26T23:57:58.666Z,24.80
